sensor_id;sensor_type;location;lat;lon;timestamp;temperature;humidity
28171;DHT22;15458;53.346;-1.688;2022-12-18T00:00:47;0.80;99.90
28171;DHT22;15458;53.346;-1.688;2022-12-18T00:03:14;0.70;99.90
28171;DHT22;15458;53.346;-1.688;2022-12-18T00:05:50;0.70;99.90
28171;DHT22;15458;53.346;-1.688;2022-12-18T00:08:16;0.70;99.90
28171;DHT22;15458;53.346;-1.688;2022-12-18T00:10:43;0.70;99.90
28171;DHT22;15458;53.346;-1.688;2022-12-18T00:13:09;0.70;99.90
28171;DHT22;15458;53.346;-1.688;2022-12-18T00:15:36;0.70;99.90
28171;DHT22;15458;53.346;-1.688;2022-12-18T00:18:02;0.70;99.90
28171;DHT22;15458;53.346;-1.688;2022-12-18T00:20:32;0.70;99.90
28171;DHT22;15458;53.346;-1.688;2022-12-18T00:23:00;0.60;99.90
28171;DHT22;15458;53.346;-1.688;2022-12-18T00:25:26;0.60;99.90
28171;DHT22;15458;53.346;-1.688;2022-12-18T00:27:52;0.60;99.90
28171;DHT22;15458;53.346;-1.688;2022-12-18T00:30:18;0.60;99.90
28171;DHT22;15458;53.346;-1.688;2022-12-18T00:32:43;0.50;99.90
28171;DHT22;15458;53.346;-1.688;2022-12-18T00:35:09;0.60;99.90
28171;DHT22;15458;53.346;-1.688;2022-12-18T00:37:35;0.50;99.90
28171;DHT22;15458;53.346;-1.688;2022-12-18T00:40:01;0.50;99.90
28171;DHT22;15458;53.346;-1.688;2022-12-18T00:42:26;0.50;99.90
28171;DHT22;15458;53.346;-1.688;2022-12-18T00:45:11;0.40;99.90
28171;DHT22;15458;53.346;-1.688;2022-12-18T00:47:36;0.40;99.90
28171;DHT22;15458;53.346;-1.688;2022-12-18T00:50:02;0.40;99.90
28171;DHT22;15458;53.346;-1.688;2022-12-18T00:52:28;0.40;99.90
28171;DHT22;15458;53.346;-1.688;2022-12-18T00:54:54;0.30;99.90
28171;DHT22;15458;53.346;-1.688;2022-12-18T00:57:19;0.30;99.90
28171;DHT22;15458;53.346;-1.688;2022-12-18T00:59:45;0.20;99.90
28171;DHT22;15458;53.346;-1.688;2022-12-18T01:02:14;0.20;99.90
28171;DHT22;15458;53.346;-1.688;2022-12-18T01:04:39;0.20;99.90
28171;DHT22;15458;53.346;-1.688;2022-12-18T01:07:05;0.20;99.90
28171;DHT22;15458;53.346;-1.688;2022-12-18T01:09:31;0.10;99.90
28171;DHT22;15458;53.346;-1.688;2022-12-18T01:11:56;0.10;99.90
28171;DHT22;15458;53.346;-1.688;2022-12-18T01:14:22;0.10;99.90
28171;DHT22;15458;53.346;-1.688;2022-12-18T01:16:48;0.10;99.90
28171;DHT22;15458;53.346;-1.688;2022-12-18T01:19:14;0.10;99.90
28171;DHT22;15458;53.346;-1.688;2022-12-18T01:21:39;0.10;99.90
28171;DHT22;15458;53.346;-1.688;2022-12-18T01:24:05;0.00;99.90
28171;DHT22;15458;53.346;-1.688;2022-12-18T01:26:31;0.00;99.90
28171;DHT22;15458;53.346;-1.688;2022-12-18T01:28:57;0.00;99.90
28171;DHT22;15458;53.346;-1.688;2022-12-18T01:31:27;-0.10;99.90
28171;DHT22;15458;53.346;-1.688;2022-12-18T01:33:53;-0.10;99.90
28171;DHT22;15458;53.346;-1.688;2022-12-18T01:36:31;-0.10;99.90
28171;DHT22;15458;53.346;-1.688;2022-12-18T01:38:59;-0.20;99.90
28171;DHT22;15458;53.346;-1.688;2022-12-18T01:41:28;-0.20;99.90
28171;DHT22;15458;53.346;-1.688;2022-12-18T01:49:49;-0.20;99.90
28171;DHT22;15458;53.346;-1.688;2022-12-18T01:52:16;-0.30;99.90
28171;DHT22;15458;53.346;-1.688;2022-12-18T01:54:42;-0.30;99.90
28171;DHT22;15458;53.346;-1.688;2022-12-18T01:57:09;-0.30;99.90
28171;DHT22;15458;53.346;-1.688;2022-12-18T01:59:35;-0.30;99.90
28171;DHT22;15458;53.346;-1.688;2022-12-18T02:02:02;-0.40;99.90
28171;DHT22;15458;53.346;-1.688;2022-12-18T02:04:29;-0.40;99.90
28171;DHT22;15458;53.346;-1.688;2022-12-18T02:07:42;-0.40;99.90
28171;DHT22;15458;53.346;-1.688;2022-12-18T02:10:21;-0.40;99.90
28171;DHT22;15458;53.346;-1.688;2022-12-18T02:13:20;-0.40;99.90
28171;DHT22;15458;53.346;-1.688;2022-12-18T02:16:16;-0.50;99.90
28171;DHT22;15458;53.346;-1.688;2022-12-18T02:18:49;-0.50;99.90
28171;DHT22;15458;53.346;-1.688;2022-12-18T02:21:28;-0.60;99.90
28171;DHT22;15458;53.346;-1.688;2022-12-18T02:26:43;-0.60;99.90
28171;DHT22;15458;53.346;-1.688;2022-12-18T02:29:33;-0.60;99.90
28171;DHT22;15458;53.346;-1.688;2022-12-18T02:32:02;-0.60;99.90
28171;DHT22;15458;53.346;-1.688;2022-12-18T02:34:33;-0.70;99.90
28171;DHT22;15458;53.346;-1.688;2022-12-18T02:37:04;-0.70;99.90
28171;DHT22;15458;53.346;-1.688;2022-12-18T02:39:33;-0.70;99.90
28171;DHT22;15458;53.346;-1.688;2022-12-18T02:42:00;-0.70;99.90
28171;DHT22;15458;53.346;-1.688;2022-12-18T02:44:33;-0.70;99.90
28171;DHT22;15458;53.346;-1.688;2022-12-18T02:46:59;-0.80;99.90
28171;DHT22;15458;53.346;-1.688;2022-12-18T03:00:23;-0.90;99.90
28171;DHT22;15458;53.346;-1.688;2022-12-18T03:03:14;-0.90;99.90
28171;DHT22;15458;53.346;-1.688;2022-12-18T03:08:14;-0.90;99.90
28171;DHT22;15458;53.346;-1.688;2022-12-18T03:10:47;-0.90;99.90
28171;DHT22;15458;53.346;-1.688;2022-12-18T03:13:31;-0.90;99.90
28171;DHT22;15458;53.346;-1.688;2022-12-18T03:15:59;-1.00;99.90
28171;DHT22;15458;53.346;-1.688;2022-12-18T03:18:32;-1.00;99.90
28171;DHT22;15458;53.346;-1.688;2022-12-18T03:21:03;-1.00;99.90
28171;DHT22;15458;53.346;-1.688;2022-12-18T03:23:36;-1.10;99.90
28171;DHT22;15458;53.346;-1.688;2022-12-18T03:26:07;-1.10;99.90
28171;DHT22;15458;53.346;-1.688;2022-12-18T03:28:39;-1.10;99.90
28171;DHT22;15458;53.346;-1.688;2022-12-18T03:31:08;-1.10;99.90
28171;DHT22;15458;53.346;-1.688;2022-12-18T03:33:41;-1.20;99.90
28171;DHT22;15458;53.346;-1.688;2022-12-18T03:36:08;-1.20;99.90
28171;DHT22;15458;53.346;-1.688;2022-12-18T03:38:33;-1.30;99.90
28171;DHT22;15458;53.346;-1.688;2022-12-18T03:49:35;-1.20;99.90
28171;DHT22;15458;53.346;-1.688;2022-12-18T03:52:13;-1.30;99.90
28171;DHT22;15458;53.346;-1.688;2022-12-18T03:54:41;-1.30;99.90
28171;DHT22;15458;53.346;-1.688;2022-12-18T03:57:16;-1.30;99.90
28171;DHT22;15458;53.346;-1.688;2022-12-18T03:59:45;-1.30;99.90
28171;DHT22;15458;53.346;-1.688;2022-12-18T04:02:13;-1.20;99.90
28171;DHT22;15458;53.346;-1.688;2022-12-18T04:04:40;-1.30;99.90
28171;DHT22;15458;53.346;-1.688;2022-12-18T04:07:07;-1.30;99.90
28171;DHT22;15458;53.346;-1.688;2022-12-18T04:09:35;-1.30;99.90
28171;DHT22;15458;53.346;-1.688;2022-12-18T04:12:01;-1.30;99.90
28171;DHT22;15458;53.346;-1.688;2022-12-18T04:14:27;-1.30;99.90
28171;DHT22;15458;53.346;-1.688;2022-12-18T04:16:52;-1.30;99.90
28171;DHT22;15458;53.346;-1.688;2022-12-18T04:19:18;-1.40;99.90
28171;DHT22;15458;53.346;-1.688;2022-12-18T04:21:44;-1.40;99.90
28171;DHT22;15458;53.346;-1.688;2022-12-18T04:24:09;-1.40;99.90
28171;DHT22;15458;53.346;-1.688;2022-12-18T04:26:35;-1.40;99.90
28171;DHT22;15458;53.346;-1.688;2022-12-18T04:29:00;-1.40;99.90
28171;DHT22;15458;53.346;-1.688;2022-12-18T04:31:27;-1.40;99.90
28171;DHT22;15458;53.346;-1.688;2022-12-18T04:33:52;-1.40;99.90
28171;DHT22;15458;53.346;-1.688;2022-12-18T04:36:18;-1.40;99.90
28171;DHT22;15458;53.346;-1.688;2022-12-18T04:38:44;-1.30;99.90
28171;DHT22;15458;53.346;-1.688;2022-12-18T04:41:10;-1.30;99.90
28171;DHT22;15458;53.346;-1.688;2022-12-18T04:43:35;-1.30;99.90
28171;DHT22;15458;53.346;-1.688;2022-12-18T04:46:06;-1.20;99.90
28171;DHT22;15458;53.346;-1.688;2022-12-18T04:48:33;-1.20;99.90
28171;DHT22;15458;53.346;-1.688;2022-12-18T04:50:58;-1.10;99.90
28171;DHT22;15458;53.346;-1.688;2022-12-18T04:53:24;-1.10;99.90
28171;DHT22;15458;53.346;-1.688;2022-12-18T04:55:50;-1.00;99.90
28171;DHT22;15458;53.346;-1.688;2022-12-18T04:58:16;-1.00;99.90
28171;DHT22;15458;53.346;-1.688;2022-12-18T05:00:42;-0.90;99.90
28171;DHT22;15458;53.346;-1.688;2022-12-18T05:03:07;-0.90;99.90
28171;DHT22;15458;53.346;-1.688;2022-12-18T05:05:35;-0.90;99.90
28171;DHT22;15458;53.346;-1.688;2022-12-18T05:08:00;-0.80;99.90
28171;DHT22;15458;53.346;-1.688;2022-12-18T05:10:26;-0.80;99.90
28171;DHT22;15458;53.346;-1.688;2022-12-18T05:12:52;-0.80;99.90
28171;DHT22;15458;53.346;-1.688;2022-12-18T05:15:26;-0.70;99.90
28171;DHT22;15458;53.346;-1.688;2022-12-18T05:17:52;-0.70;99.90
28171;DHT22;15458;53.346;-1.688;2022-12-18T05:20:17;-0.70;99.90
28171;DHT22;15458;53.346;-1.688;2022-12-18T05:22:43;-0.70;99.90
28171;DHT22;15458;53.346;-1.688;2022-12-18T05:25:09;-0.70;99.90
28171;DHT22;15458;53.346;-1.688;2022-12-18T05:27:35;-0.60;99.90
28171;DHT22;15458;53.346;-1.688;2022-12-18T05:30:00;-0.60;99.90
28171;DHT22;15458;53.346;-1.688;2022-12-18T05:32:26;-0.60;99.90
28171;DHT22;15458;53.346;-1.688;2022-12-18T05:34:52;-0.50;99.90
28171;DHT22;15458;53.346;-1.688;2022-12-18T05:37:18;-0.50;99.90
28171;DHT22;15458;53.346;-1.688;2022-12-18T05:39:44;-0.50;99.90
28171;DHT22;15458;53.346;-1.688;2022-12-18T05:42:11;-0.40;99.90
28171;DHT22;15458;53.346;-1.688;2022-12-18T05:44:36;-0.40;99.90
28171;DHT22;15458;53.346;-1.688;2022-12-18T05:47:03;-0.40;99.90
28171;DHT22;15458;53.346;-1.688;2022-12-18T05:49:29;-0.40;99.90
28171;DHT22;15458;53.346;-1.688;2022-12-18T05:51:56;-0.40;99.90
28171;DHT22;15458;53.346;-1.688;2022-12-18T05:54:22;-0.40;99.90
28171;DHT22;15458;53.346;-1.688;2022-12-18T05:56:48;-0.30;99.90
28171;DHT22;15458;53.346;-1.688;2022-12-18T05:59:16;-0.30;99.90
28171;DHT22;15458;53.346;-1.688;2022-12-18T06:01:43;-0.30;99.90
28171;DHT22;15458;53.346;-1.688;2022-12-18T06:04:08;-0.30;99.90
28171;DHT22;15458;53.346;-1.688;2022-12-18T06:06:34;-0.30;99.90
28171;DHT22;15458;53.346;-1.688;2022-12-18T06:08:59;-0.20;99.90
28171;DHT22;15458;53.346;-1.688;2022-12-18T06:11:26;-0.20;99.90
28171;DHT22;15458;53.346;-1.688;2022-12-18T06:13:53;-0.20;99.90
28171;DHT22;15458;53.346;-1.688;2022-12-18T06:16:20;-0.20;99.90
28171;DHT22;15458;53.346;-1.688;2022-12-18T06:18:46;-0.20;99.90
28171;DHT22;15458;53.346;-1.688;2022-12-18T06:21:12;-0.20;99.90
28171;DHT22;15458;53.346;-1.688;2022-12-18T06:23:37;-0.20;99.90
28171;DHT22;15458;53.346;-1.688;2022-12-18T06:26:05;-0.20;99.90
28171;DHT22;15458;53.346;-1.688;2022-12-18T06:28:34;-0.20;99.90
28171;DHT22;15458;53.346;-1.688;2022-12-18T06:31:00;-0.20;99.90
28171;DHT22;15458;53.346;-1.688;2022-12-18T06:33:28;-0.20;99.90
28171;DHT22;15458;53.346;-1.688;2022-12-18T06:35:54;-0.20;99.90
28171;DHT22;15458;53.346;-1.688;2022-12-18T06:38:28;-0.10;99.90
28171;DHT22;15458;53.346;-1.688;2022-12-18T06:40:54;-0.10;99.90
28171;DHT22;15458;53.346;-1.688;2022-12-18T06:43:21;0.00;99.90
28171;DHT22;15458;53.346;-1.688;2022-12-18T06:45:47;0.00;99.90
28171;DHT22;15458;53.346;-1.688;2022-12-18T06:48:35;0.00;99.90
28171;DHT22;15458;53.346;-1.688;2022-12-18T06:51:10;0.00;99.90
28171;DHT22;15458;53.346;-1.688;2022-12-18T06:53:41;0.00;99.90
28171;DHT22;15458;53.346;-1.688;2022-12-18T06:56:08;0.00;99.90
28171;DHT22;15458;53.346;-1.688;2022-12-18T06:58:37;0.00;99.90
28171;DHT22;15458;53.346;-1.688;2022-12-18T07:01:05;0.00;99.90
28171;DHT22;15458;53.346;-1.688;2022-12-18T07:03:31;0.00;99.90
28171;DHT22;15458;53.346;-1.688;2022-12-18T07:06:00;0.00;99.90
28171;DHT22;15458;53.346;-1.688;2022-12-18T07:08:26;0.00;99.90
28171;DHT22;15458;53.346;-1.688;2022-12-18T07:10:53;0.00;99.90
28171;DHT22;15458;53.346;-1.688;2022-12-18T07:13:22;0.00;99.90
28171;DHT22;15458;53.346;-1.688;2022-12-18T07:15:48;-0.10;99.90
28171;DHT22;15458;53.346;-1.688;2022-12-18T07:18:13;-0.10;99.90
28171;DHT22;15458;53.346;-1.688;2022-12-18T07:20:39;-0.10;99.90
28171;DHT22;15458;53.346;-1.688;2022-12-18T07:23:05;-0.10;99.90
28171;DHT22;15458;53.346;-1.688;2022-12-18T07:25:35;-0.10;99.90
28171;DHT22;15458;53.346;-1.688;2022-12-18T07:28:06;-0.10;99.90
28171;DHT22;15458;53.346;-1.688;2022-12-18T07:30:32;-0.10;99.90
28171;DHT22;15458;53.346;-1.688;2022-12-18T07:32:58;-0.10;99.90
28171;DHT22;15458;53.346;-1.688;2022-12-18T07:35:24;-0.10;99.90
28171;DHT22;15458;53.346;-1.688;2022-12-18T07:37:49;-0.10;99.90
28171;DHT22;15458;53.346;-1.688;2022-12-18T07:40:15;-0.20;99.90
28171;DHT22;15458;53.346;-1.688;2022-12-18T07:42:41;-0.10;99.90
28171;DHT22;15458;53.346;-1.688;2022-12-18T07:45:07;-0.20;99.90
28171;DHT22;15458;53.346;-1.688;2022-12-18T07:47:37;-0.20;99.90
28171;DHT22;15458;53.346;-1.688;2022-12-18T07:50:03;-0.10;99.90
28171;DHT22;15458;53.346;-1.688;2022-12-18T07:52:29;-0.10;99.90
28171;DHT22;15458;53.346;-1.688;2022-12-18T07:54:55;-0.20;99.90
28171;DHT22;15458;53.346;-1.688;2022-12-18T07:57:24;-0.20;99.90
28171;DHT22;15458;53.346;-1.688;2022-12-18T07:59:49;-0.20;99.90
28171;DHT22;15458;53.346;-1.688;2022-12-18T08:02:15;-0.20;99.90
28171;DHT22;15458;53.346;-1.688;2022-12-18T08:04:41;-0.20;99.90
28171;DHT22;15458;53.346;-1.688;2022-12-18T08:07:06;-0.20;99.90
28171;DHT22;15458;53.346;-1.688;2022-12-18T08:09:32;-0.10;99.90
28171;DHT22;15458;53.346;-1.688;2022-12-18T08:11:58;-0.20;99.90
28171;DHT22;15458;53.346;-1.688;2022-12-18T08:14:23;-0.20;99.90
28171;DHT22;15458;53.346;-1.688;2022-12-18T08:16:49;-0.20;99.90
28171;DHT22;15458;53.346;-1.688;2022-12-18T08:19:15;-0.20;99.90
28171;DHT22;15458;53.346;-1.688;2022-12-18T08:21:41;-0.20;99.90
28171;DHT22;15458;53.346;-1.688;2022-12-18T08:24:08;-0.20;99.90
28171;DHT22;15458;53.346;-1.688;2022-12-18T08:26:34;-0.20;99.90
28171;DHT22;15458;53.346;-1.688;2022-12-18T08:29:00;-0.20;99.90
28171;DHT22;15458;53.346;-1.688;2022-12-18T08:31:29;-0.20;99.90
28171;DHT22;15458;53.346;-1.688;2022-12-18T08:33:56;-0.20;99.90
28171;DHT22;15458;53.346;-1.688;2022-12-18T08:36:23;-0.20;99.90
28171;DHT22;15458;53.346;-1.688;2022-12-18T08:38:50;-0.20;99.90
28171;DHT22;15458;53.346;-1.688;2022-12-18T08:41:17;-0.20;99.90
28171;DHT22;15458;53.346;-1.688;2022-12-18T08:43:43;-0.20;99.90
28171;DHT22;15458;53.346;-1.688;2022-12-18T08:46:41;-0.20;99.90
28171;DHT22;15458;53.346;-1.688;2022-12-18T08:49:07;-0.20;99.90
28171;DHT22;15458;53.346;-1.688;2022-12-18T08:51:34;-0.20;99.90
28171;DHT22;15458;53.346;-1.688;2022-12-18T08:54:01;-0.30;99.90
28171;DHT22;15458;53.346;-1.688;2022-12-18T08:56:27;-0.30;99.90
28171;DHT22;15458;53.346;-1.688;2022-12-18T08:58:54;-0.20;99.90
28171;DHT22;15458;53.346;-1.688;2022-12-18T09:01:20;-0.20;99.90
28171;DHT22;15458;53.346;-1.688;2022-12-18T09:03:48;-0.30;99.90
28171;DHT22;15458;53.346;-1.688;2022-12-18T09:06:16;-0.20;99.90
28171;DHT22;15458;53.346;-1.688;2022-12-18T09:08:43;-0.30;99.90
28171;DHT22;15458;53.346;-1.688;2022-12-18T09:11:15;-0.30;99.90
28171;DHT22;15458;53.346;-1.688;2022-12-18T09:13:40;-0.30;99.90
28171;DHT22;15458;53.346;-1.688;2022-12-18T09:16:06;-0.20;99.90
28171;DHT22;15458;53.346;-1.688;2022-12-18T09:18:32;-0.20;99.90
28171;DHT22;15458;53.346;-1.688;2022-12-18T09:20:57;-0.20;99.90
28171;DHT22;15458;53.346;-1.688;2022-12-18T09:23:23;-0.20;99.90
28171;DHT22;15458;53.346;-1.688;2022-12-18T09:26:02;-0.20;99.90
28171;DHT22;15458;53.346;-1.688;2022-12-18T09:28:35;-0.20;99.90
28171;DHT22;15458;53.346;-1.688;2022-12-18T09:31:06;-0.20;99.90
28171;DHT22;15458;53.346;-1.688;2022-12-18T09:33:34;-0.20;99.90
28171;DHT22;15458;53.346;-1.688;2022-12-18T09:36:01;-0.20;99.90
28171;DHT22;15458;53.346;-1.688;2022-12-18T09:38:30;-0.20;99.90
28171;DHT22;15458;53.346;-1.688;2022-12-18T09:43:52;-0.20;99.90
28171;DHT22;15458;53.346;-1.688;2022-12-18T09:46:29;-0.20;99.90
28171;DHT22;15458;53.346;-1.688;2022-12-18T09:48:59;-0.20;99.90
28171;DHT22;15458;53.346;-1.688;2022-12-18T09:51:37;-0.20;99.90
28171;DHT22;15458;53.346;-1.688;2022-12-18T09:54:23;-0.20;99.90
28171;DHT22;15458;53.346;-1.688;2022-12-18T09:56:53;-0.20;99.90
28171;DHT22;15458;53.346;-1.688;2022-12-18T10:01:48;-0.20;99.90
28171;DHT22;15458;53.346;-1.688;2022-12-18T10:04:14;-0.20;99.90
28171;DHT22;15458;53.346;-1.688;2022-12-18T10:06:49;-0.20;99.90
28171;DHT22;15458;53.346;-1.688;2022-12-18T10:17:28;-0.10;99.90
28171;DHT22;15458;53.346;-1.688;2022-12-18T10:20:30;-0.10;99.90
28171;DHT22;15458;53.346;-1.688;2022-12-18T10:25:34;-0.10;99.90
28171;DHT22;15458;53.346;-1.688;2022-12-18T10:28:16;-0.10;99.90
28171;DHT22;15458;53.346;-1.688;2022-12-18T10:30:44;-0.10;99.90
28171;DHT22;15458;53.346;-1.688;2022-12-18T10:33:21;-0.10;99.90
28171;DHT22;15458;53.346;-1.688;2022-12-18T10:35:51;0.00;99.90
28171;DHT22;15458;53.346;-1.688;2022-12-18T10:38:45;0.00;99.90
28171;DHT22;15458;53.346;-1.688;2022-12-18T10:41:46;0.00;99.90
28171;DHT22;15458;53.346;-1.688;2022-12-18T10:44:23;0.00;99.90
28171;DHT22;15458;53.346;-1.688;2022-12-18T10:47:02;0.10;99.90
28171;DHT22;15458;53.346;-1.688;2022-12-18T10:49:31;0.00;99.90
28171;DHT22;15458;53.346;-1.688;2022-12-18T10:54:31;0.10;99.90
28171;DHT22;15458;53.346;-1.688;2022-12-18T10:57:28;0.10;99.90
28171;DHT22;15458;53.346;-1.688;2022-12-18T10:59:57;0.10;99.90
28171;DHT22;15458;53.346;-1.688;2022-12-18T11:02:37;0.20;99.90
28171;DHT22;15458;53.346;-1.688;2022-12-18T11:07:49;0.20;99.90
28171;DHT22;15458;53.346;-1.688;2022-12-18T11:10:17;0.20;99.90
28171;DHT22;15458;53.346;-1.688;2022-12-18T11:12:43;0.30;99.90
28171;DHT22;15458;53.346;-1.688;2022-12-18T11:15:28;0.30;99.90
28171;DHT22;15458;53.346;-1.688;2022-12-18T11:17:56;0.30;99.90
28171;DHT22;15458;53.346;-1.688;2022-12-18T11:20:27;0.30;99.90
28171;DHT22;15458;53.346;-1.688;2022-12-18T11:23:04;0.30;99.90
28171;DHT22;15458;53.346;-1.688;2022-12-18T11:25:37;0.40;99.90
28171;DHT22;15458;53.346;-1.688;2022-12-18T11:28:43;0.40;99.90
28171;DHT22;15458;53.346;-1.688;2022-12-18T11:31:28;0.40;99.90
28171;DHT22;15458;53.346;-1.688;2022-12-18T11:33:59;0.40;99.90
28171;DHT22;15458;53.346;-1.688;2022-12-18T11:36:29;0.50;99.90
28171;DHT22;15458;53.346;-1.688;2022-12-18T11:39:00;0.50;99.90
28171;DHT22;15458;53.346;-1.688;2022-12-18T11:41:47;0.50;99.90
28171;DHT22;15458;53.346;-1.688;2022-12-18T11:44:49;0.50;99.90
28171;DHT22;15458;53.346;-1.688;2022-12-18T11:50:01;0.50;99.90
28171;DHT22;15458;53.346;-1.688;2022-12-18T11:52:39;0.50;99.90
28171;DHT22;15458;53.346;-1.688;2022-12-18T11:55:32;0.60;99.90
28171;DHT22;15458;53.346;-1.688;2022-12-18T12:01:39;0.60;99.90
28171;DHT22;15458;53.346;-1.688;2022-12-18T12:12:37;0.60;99.90
28171;DHT22;15458;53.346;-1.688;2022-12-18T12:21:35;0.60;99.90
28171;DHT22;15458;53.346;-1.688;2022-12-18T12:32:45;0.70;99.90
28171;DHT22;15458;53.346;-1.688;2022-12-18T12:35:21;0.70;99.90
28171;DHT22;15458;53.346;-1.688;2022-12-18T12:38:30;0.70;99.90
28171;DHT22;15458;53.346;-1.688;2022-12-18T12:40:58;0.70;99.90
28171;DHT22;15458;53.346;-1.688;2022-12-18T12:43:51;0.80;99.90
28171;DHT22;15458;53.346;-1.688;2022-12-18T12:46:22;0.80;99.90
28171;DHT22;15458;53.346;-1.688;2022-12-18T12:48:50;0.80;99.90
28171;DHT22;15458;53.346;-1.688;2022-12-18T12:51:41;0.80;99.90
28171;DHT22;15458;53.346;-1.688;2022-12-18T12:54:17;0.80;99.90
28171;DHT22;15458;53.346;-1.688;2022-12-18T13:00:17;0.90;99.90
28171;DHT22;15458;53.346;-1.688;2022-12-18T13:08:24;0.90;99.90
28171;DHT22;15458;53.346;-1.688;2022-12-18T13:10:51;0.90;99.90
28171;DHT22;15458;53.346;-1.688;2022-12-18T13:13:51;0.90;99.90
28171;DHT22;15458;53.346;-1.688;2022-12-18T13:16:22;0.90;99.90
28171;DHT22;15458;53.346;-1.688;2022-12-18T13:18:53;0.90;99.90
28171;DHT22;15458;53.346;-1.688;2022-12-18T13:21:24;0.90;99.90
28171;DHT22;15458;53.346;-1.688;2022-12-18T13:23:53;0.90;99.90
28171;DHT22;15458;53.346;-1.688;2022-12-18T13:34:24;0.90;99.90
28171;DHT22;15458;53.346;-1.688;2022-12-18T13:36:52;0.90;99.90
28171;DHT22;15458;53.346;-1.688;2022-12-18T13:41:44;1.00;99.90
28171;DHT22;15458;53.346;-1.688;2022-12-18T13:44:20;1.00;99.90
28171;DHT22;15458;53.346;-1.688;2022-12-18T13:46:50;1.00;99.90
28171;DHT22;15458;53.346;-1.688;2022-12-18T13:49:41;1.00;99.90
28171;DHT22;15458;53.346;-1.688;2022-12-18T13:52:21;1.00;99.90
28171;DHT22;15458;53.346;-1.688;2022-12-18T13:54:52;1.00;99.90
28171;DHT22;15458;53.346;-1.688;2022-12-18T13:57:26;1.00;99.90
28171;DHT22;15458;53.346;-1.688;2022-12-18T13:59:53;1.00;99.90
28171;DHT22;15458;53.346;-1.688;2022-12-18T14:02:29;1.00;99.90
28171;DHT22;15458;53.346;-1.688;2022-12-18T14:04:59;1.00;99.90
28171;DHT22;15458;53.346;-1.688;2022-12-18T14:07:27;1.00;99.90
28171;DHT22;15458;53.346;-1.688;2022-12-18T14:09:55;1.00;99.90
28171;DHT22;15458;53.346;-1.688;2022-12-18T14:15:31;1.00;99.90
28171;DHT22;15458;53.346;-1.688;2022-12-18T14:18:02;1.10;99.90
28171;DHT22;15458;53.346;-1.688;2022-12-18T14:20:30;1.10;99.90
28171;DHT22;15458;53.346;-1.688;2022-12-18T14:22:57;1.10;99.90
28171;DHT22;15458;53.346;-1.688;2022-12-18T14:25:26;1.10;99.90
28171;DHT22;15458;53.346;-1.688;2022-12-18T14:30:38;1.10;99.90
28171;DHT22;15458;53.346;-1.688;2022-12-18T14:33:16;1.10;99.90
28171;DHT22;15458;53.346;-1.688;2022-12-18T14:36:05;1.10;99.90
28171;DHT22;15458;53.346;-1.688;2022-12-18T14:38:34;1.10;99.90
28171;DHT22;15458;53.346;-1.688;2022-12-18T14:43:34;1.10;99.90
28171;DHT22;15458;53.346;-1.688;2022-12-18T14:46:01;1.10;99.90
28171;DHT22;15458;53.346;-1.688;2022-12-18T14:48:41;1.10;99.90
28171;DHT22;15458;53.346;-1.688;2022-12-18T14:51:15;1.10;99.90
28171;DHT22;15458;53.346;-1.688;2022-12-18T14:53:56;1.10;99.90
28171;DHT22;15458;53.346;-1.688;2022-12-18T14:56:34;1.10;99.90
28171;DHT22;15458;53.346;-1.688;2022-12-18T15:01:34;1.10;99.90
28171;DHT22;15458;53.346;-1.688;2022-12-18T15:04:03;1.10;99.90
28171;DHT22;15458;53.346;-1.688;2022-12-18T15:06:37;1.10;99.90
28171;DHT22;15458;53.346;-1.688;2022-12-18T15:09:20;1.10;99.90
28171;DHT22;15458;53.346;-1.688;2022-12-18T15:11:47;1.10;99.90
28171;DHT22;15458;53.346;-1.688;2022-12-18T15:14:34;1.10;99.90
28171;DHT22;15458;53.346;-1.688;2022-12-18T15:17:03;1.10;99.90
28171;DHT22;15458;53.346;-1.688;2022-12-18T15:19:36;1.10;99.90
28171;DHT22;15458;53.346;-1.688;2022-12-18T15:22:04;1.10;99.90
28171;DHT22;15458;53.346;-1.688;2022-12-18T15:24:31;1.10;99.90
28171;DHT22;15458;53.346;-1.688;2022-12-18T15:26:58;1.10;99.90
28171;DHT22;15458;53.346;-1.688;2022-12-18T15:29:25;1.10;99.90
28171;DHT22;15458;53.346;-1.688;2022-12-18T15:32:04;1.10;99.90
28171;DHT22;15458;53.346;-1.688;2022-12-18T15:34:32;1.10;99.90
28171;DHT22;15458;53.346;-1.688;2022-12-18T15:37:01;1.20;99.90
28171;DHT22;15458;53.346;-1.688;2022-12-18T15:39:29;1.20;99.90
28171;DHT22;15458;53.346;-1.688;2022-12-18T15:42:00;1.20;99.90
28171;DHT22;15458;53.346;-1.688;2022-12-18T15:44:52;1.20;99.90
28171;DHT22;15458;53.346;-1.688;2022-12-18T15:47:26;1.30;99.90
28171;DHT22;15458;53.346;-1.688;2022-12-18T15:49:54;1.30;99.90
28171;DHT22;15458;53.346;-1.688;2022-12-18T15:52:20;1.30;99.90
28171;DHT22;15458;53.346;-1.688;2022-12-18T15:54:51;1.30;99.90
28171;DHT22;15458;53.346;-1.688;2022-12-18T15:57:35;1.30;99.90
28171;DHT22;15458;53.346;-1.688;2022-12-18T16:00:03;1.20;99.90
28171;DHT22;15458;53.346;-1.688;2022-12-18T16:02:28;1.20;99.90
28171;DHT22;15458;53.346;-1.688;2022-12-18T16:04:54;1.20;99.90
28171;DHT22;15458;53.346;-1.688;2022-12-18T16:07:26;1.20;99.90
28171;DHT22;15458;53.346;-1.688;2022-12-18T16:09:52;1.20;99.90
28171;DHT22;15458;53.346;-1.688;2022-12-18T16:12:22;1.30;99.90
28171;DHT22;15458;53.346;-1.688;2022-12-18T16:14:51;1.30;99.90
28171;DHT22;15458;53.346;-1.688;2022-12-18T16:17:16;1.30;99.90
28171;DHT22;15458;53.346;-1.688;2022-12-18T16:19:42;1.40;99.90
28171;DHT22;15458;53.346;-1.688;2022-12-18T16:22:22;1.40;99.90
28171;DHT22;15458;53.346;-1.688;2022-12-18T16:24:50;1.50;99.90
28171;DHT22;15458;53.346;-1.688;2022-12-18T16:27:18;1.50;99.90
28171;DHT22;15458;53.346;-1.688;2022-12-18T16:29:44;1.50;99.90
28171;DHT22;15458;53.346;-1.688;2022-12-18T16:32:15;1.50;99.90
28171;DHT22;15458;53.346;-1.688;2022-12-18T16:34:45;1.50;99.90
28171;DHT22;15458;53.346;-1.688;2022-12-18T16:37:12;1.50;99.90
28171;DHT22;15458;53.346;-1.688;2022-12-18T16:39:40;1.50;99.90
28171;DHT22;15458;53.346;-1.688;2022-12-18T16:42:19;1.50;99.90
28171;DHT22;15458;53.346;-1.688;2022-12-18T16:44:46;1.50;99.90
28171;DHT22;15458;53.346;-1.688;2022-12-18T16:47:13;1.50;99.90
28171;DHT22;15458;53.346;-1.688;2022-12-18T16:49:38;1.50;99.90
28171;DHT22;15458;53.346;-1.688;2022-12-18T16:52:05;1.50;99.90
28171;DHT22;15458;53.346;-1.688;2022-12-18T16:54:32;1.50;99.90
28171;DHT22;15458;53.346;-1.688;2022-12-18T16:57:01;1.60;99.90
28171;DHT22;15458;53.346;-1.688;2022-12-18T16:59:32;1.60;99.90
28171;DHT22;15458;53.346;-1.688;2022-12-18T17:02:01;1.60;99.90
28171;DHT22;15458;53.346;-1.688;2022-12-18T17:04:28;1.60;99.90
28171;DHT22;15458;53.346;-1.688;2022-12-18T17:06:54;1.60;99.90
28171;DHT22;15458;53.346;-1.688;2022-12-18T17:09:21;1.60;99.90
28171;DHT22;15458;53.346;-1.688;2022-12-18T17:11:56;1.60;99.90
28171;DHT22;15458;53.346;-1.688;2022-12-18T17:14:23;1.60;99.90
28171;DHT22;15458;53.346;-1.688;2022-12-18T17:16:49;1.60;99.90
28171;DHT22;15458;53.346;-1.688;2022-12-18T17:19:15;1.70;99.90
28171;DHT22;15458;53.346;-1.688;2022-12-18T17:21:49;1.80;99.90
28171;DHT22;15458;53.346;-1.688;2022-12-18T17:27:40;1.90;99.90
28171;DHT22;15458;53.346;-1.688;2022-12-18T17:30:09;2.00;99.90
28171;DHT22;15458;53.346;-1.688;2022-12-18T17:32:35;2.00;99.90
28171;DHT22;15458;53.346;-1.688;2022-12-18T17:35:01;2.00;99.90
28171;DHT22;15458;53.346;-1.688;2022-12-18T17:37:32;2.00;99.90